Terminal Aerodrome Forecast
Issued by NWS

Home | Current Version | Previous Version | Text Only | Print | Product List | Glossary On
Versions: 1 2 3 4 5 6 7 8 9 10 11 12 13
179
FTUS42 TJSJ 271731
TAFJMZ
TAF
TJMZ 271731Z 2718/2818 28009KT P6SM VCTS SCT022CB BKN030
     FM272200 05006KT P6SM SCT040
     FM281400 06012KT P6SM SCT040
      AMD NOT SKED=

USA.gov is the U.S. government's official web portal to all federal, state and local government web resources and services.